Terminal Aerodrome Forecast
Issued by NWS

Home | Current Version | Previous Version | Text Only | Print | Product List | Glossary On
Versions: 1 2 3 4 5 6 7 8 9 10 11
608
FTAK31 PAJN 260533
TAFASI
TAF
PASI 260533Z 2606/2706 VRB03KT P6SM BKN080 BKN120
     FM260900 06006KT P6SM VCSH SCT050 OVC080
     FM261500 08010KT P6SM VCSH SCT030 OVC050
     FM262000 12012KT P6SM -RA SCT030 OVC050=

USA.gov is the U.S. government's official web portal to all federal, state and local government web resources and services.